Norwegian Star — C6FR3 — position and weather

sailwx.info

Track history (hours):
 
Tides and Currents Weather Stations Pressure Air Temp Water Temp Dewpoint Dewpoint Depression Visibility Wind Speed Wind Dir Waves Ship Positions

Norwegian Star

Operator: Norwegian Cruise Line

Last reported at 2020-Apr-02 21:29 UTC. Time now 2020-Apr-02 22:59 UTC.
Position N 25°49' W 080°05'.

Type: Passenger vessel. MMSI: 311082000.

Date/timePositionNaut miles runAvg speedWind from/ knotsBaromVisibWave heightAir tempDewpointWater temp
2020-Apr-02 21:29N 25°49' W 080°05'0 0.0
2020-Apr-02 20:59N 25°49' W 080°05'0 0.0
2020-Apr-02 19:29N 25°49' W 080°05'0 0.0
2020-Apr-02 18:53N 25°49' W 080°05'0 0.0
2020-Apr-02 18:29N 25°49' W 080°05'1 0.9
2020-Apr-02 17:00N 25°48' W 080°06'1 0.9 070 / 111016.9 5.4 24.0 26.6
2020-Apr-02 15:29N 25°49' W 080°05'1 0.9
2020-Apr-02 14:00N 25°48' W 080°06'1 2.6 050 / 101017.0 23.9 26.3
2020-Apr-02 13:29N 25°49' W 080°05'0 0.1
2020-Apr-02 12:00N 25°49' W 080°05'7 7.4
2020-Apr-02 11:00N 25°54' W 079°59'4 8.0
2020-Apr-02 10:30N 25°57' W 079°56'8 7.7
2020-Apr-02 09:30N 26°02' W 079°49'13 6.5
2020-Apr-02 07:30N 25°56' W 079°36'16 8.3
2020-Apr-02 05:30N 25°39' W 079°36'11 3.7
2020-Apr-02 02:30N 25°32' W 079°45'4 8.2
2020-Apr-02 02:00N 25°36' W 079°46'18 6.0
2020-Apr-01 23:00N 25°46' W 080°02'5 9.4
2020-Apr-01 22:31N 25°46' W 080°08'2 2.0
2020-Apr-01 21:30N 25°46' W 080°10'0 0.0
2020-Apr-01 21:00N 25°46' W 080°10'0 0.0
2020-Apr-01 18:30N 25°46' W 080°10'0 0.0
2020-Apr-01 18:00N 25°46' W 080°10'0 0.0
2020-Apr-01 17:00N 25°46' W 080°10'0 0.0
2020-Apr-01 16:30N 25°46' W 080°10'0 0.0
2020-Apr-01 10:30N 25°46' W 080°10'0 0.0
2020-Apr-01 08:00N 25°46' W 080°10'0 0.0
2020-Apr-01 07:30N 25°46' W 080°10'0 0.0
2020-Mar-31 21:57N 25°46' W 080°10'0 0.0
2020-Mar-31 21:00N 25°46' W 080°10'0 0.0
2020-Mar-31 20:27N 25°46' W 080°10'0 0.0
2020-Mar-31 18:00N 25°46' W 080°10'0 0.0
2020-Mar-31 16:30N 25°46' W 080°10'0 0.0
2020-Mar-31 11:31N 25°46' W 080°10'0 0.0
2020-Mar-31 11:01N 25°46' W 080°10'0 0.0
2020-Mar-31 09:58N 25°46' W 080°10'0 0.0
2020-Mar-31 09:31N 25°46' W 080°10'0 0.0
2020-Mar-31 08:31N 25°46' W 080°10'0 0.0
2020-Mar-31 07:31N 25°46' W 080°10'0 0.0
2020-Mar-31 06:31N 25°46' W 080°10'0 0.0
2020-Mar-31 05:01N 25°46' W 080°10'0 0.0
2020-Mar-31 04:31N 25°46' W 080°10'0 0.0
2020-Mar-31 03:31N 25°46' W 080°10'0 0.0
2020-Mar-31 01:01N 25°46' W 080°10'3 2.0
2020-Mar-30 23:30N 25°45' W 080°07'19 9.3
2020-Mar-30 21:30N 25°51' W 079°47'4 7.9
2020-Mar-30 21:00N 25°47' W 079°46'17 4.9
2020-Mar-30 17:30N 25°49' W 080°05'0 0.0
2020-Mar-30 16:30N 25°49' W 080°05'0 0.0
2020-Mar-30 14:30N 25°49' W 080°05'0 0.0
2020-Mar-30 14:00N 25°49' W 080°05'0 0.0
2020-Mar-30 12:00N 25°49' W 080°05'0 0.0
2020-Mar-30 10:18N 25°49' W 080°05'0 0.0
2020-Mar-30 08:30N 25°49' W 080°05'0 0.0
2020-Mar-30 07:51N 25°49' W 080°05'0 0.0
2020-Mar-30 05:54N 25°49' W 080°05'0 0.0
2020-Mar-30 05:24N 25°49' W 080°05'0 0.0
2020-Mar-30 04:24N 25°49' W 080°05'0 0.0
2020-Mar-30 01:57N 25°49' W 080°05'0 0.0
2020-Mar-30 01:27N 25°49' W 080°05'0 0.0
2020-Mar-29 22:27N 25°49' W 080°05'0 0.0
2020-Mar-29 21:30N 25°49' W 080°05'0 0.0
2020-Mar-29 20:30N 25°49' W 080°05'0 0.0
2020-Mar-29 19:30N 25°49' W 080°05'0 0.0
2020-Mar-29 19:00N 25°49' W 080°05'0 0.0
2020-Mar-29 17:51N 25°49' W 080°05'0 0.0
2020-Mar-29 17:21N 25°49' W 080°05'0 0.0
2020-Mar-29 16:24N 25°49' W 080°05'0 0.0
2020-Mar-29 14:27N 25°49' W 080°05'0 0.0
2020-Mar-29 13:27N 25°49' W 080°05'0 0.0
2020-Mar-29 12:57N 25°49' W 080°05'0 0.0
2020-Mar-29 12:27N 25°49' W 080°05'0 0.0
2020-Mar-29 11:15N 25°49' W 080°05'0 0.0
2020-Mar-29 09:00N 25°49' W 080°05'0 0.0
2020-Mar-29 03:21N 25°49' W 080°05'0 0.0
2020-Mar-29 02:24N 25°49' W 080°05'2 0.9
2020-Mar-29 00:01N 25°49' W 080°02'815.0
2020-Mar-28 23:31N 25°45' W 079°55'3413.4
2020-Mar-28 20:59N 25°16' W 079°36'1912.3
2020-Mar-28 19:26N 24°58' W 079°32'  
Track history (hours):
 
Tides and Currents Weather Stations Pressure Air Temp Water Temp Dewpoint Dewpoint Depression Visibility Wind Speed Wind Dir Waves Ship Positions

Norwegian Star

Operator: Norwegian Cruise Line

Last reported at 2020-Apr-02 21:29 UTC. Time now 2020-Apr-02 22:59 UTC.
Position N 25°49' W 080°05'.

Type: Passenger vessel. MMSI: 311082000.

Date/timePositionNaut miles runAvg speedWind from/ knotsBaromVisibWave heightAir tempDewpointWater temp
2020-Apr-02 21:29N 25°49' W 080°05'0 0.0
2020-Apr-02 20:59N 25°49' W 080°05'0 0.0
2020-Apr-02 19:29N 25°49' W 080°05'0 0.0
2020-Apr-02 18:53N 25°49' W 080°05'0 0.0
2020-Apr-02 18:29N 25°49' W 080°05'1 0.9
2020-Apr-02 17:00N 25°48' W 080°06'1 0.9 070 / 111016.9 5.4 24.0 26.6
2020-Apr-02 15:29N 25°49' W 080°05'1 0.9
2020-Apr-02 14:00N 25°48' W 080°06'1 2.6 050 / 101017.0 23.9 26.3
2020-Apr-02 13:29N 25°49' W 080°05'0 0.1
2020-Apr-02 12:00N 25°49' W 080°05'7 7.4
2020-Apr-02 11:00N 25°54' W 079°59'4 8.0
2020-Apr-02 10:30N 25°57' W 079°56'8 7.7
2020-Apr-02 09:30N 26°02' W 079°49'13 6.5
2020-Apr-02 07:30N 25°56' W 079°36'16 8.3
2020-Apr-02 05:30N 25°39' W 079°36'11 3.7
2020-Apr-02 02:30N 25°32' W 079°45'4 8.2
2020-Apr-02 02:00N 25°36' W 079°46'18 6.0
2020-Apr-01 23:00N 25°46' W 080°02'5 9.4
2020-Apr-01 22:31N 25°46' W 080°08'2 2.0
2020-Apr-01 21:30N 25°46' W 080°10'0 0.0
2020-Apr-01 21:00N 25°46' W 080°10'0 0.0
2020-Apr-01 18:30N 25°46' W 080°10'0 0.0
2020-Apr-01 18:00N 25°46' W 080°10'0 0.0
2020-Apr-01 17:00N 25°46' W 080°10'0 0.0
2020-Apr-01 16:30N 25°46' W 080°10'0 0.0
2020-Apr-01 10:30N 25°46' W 080°10'0 0.0
2020-Apr-01 08:00N 25°46' W 080°10'0 0.0
2020-Apr-01 07:30N 25°46' W 080°10'0 0.0
2020-Mar-31 21:57N 25°46' W 080°10'0 0.0
2020-Mar-31 21:00N 25°46' W 080°10'0 0.0
2020-Mar-31 20:27N 25°46' W 080°10'0 0.0
2020-Mar-31 18:00N 25°46' W 080°10'0 0.0
2020-Mar-31 16:30N 25°46' W 080°10'0 0.0
2020-Mar-31 11:31N 25°46' W 080°10'0 0.0
2020-Mar-31 11:01N 25°46' W 080°10'0 0.0
2020-Mar-31 09:58N 25°46' W 080°10'0 0.0
2020-Mar-31 09:31N 25°46' W 080°10'0 0.0
2020-Mar-31 08:31N 25°46' W 080°10'0 0.0
2020-Mar-31 07:31N 25°46' W 080°10'0 0.0
2020-Mar-31 06:31N 25°46' W 080°10'0 0.0
2020-Mar-31 05:01N 25°46' W 080°10'0 0.0
2020-Mar-31 04:31N 25°46' W 080°10'0 0.0
2020-Mar-31 03:31N 25°46' W 080°10'0 0.0
2020-Mar-31 01:01N 25°46' W 080°10'3 2.0
2020-Mar-30 23:30N 25°45' W 080°07'19 9.3
2020-Mar-30 21:30N 25°51' W 079°47'4 7.9
2020-Mar-30 21:00N 25°47' W 079°46'17 4.9
2020-Mar-30 17:30N 25°49' W 080°05'0 0.0
2020-Mar-30 16:30N 25°49' W 080°05'0 0.0
2020-Mar-30 14:30N 25°49' W 080°05'0 0.0
2020-Mar-30 14:00N 25°49' W 080°05'0 0.0
2020-Mar-30 12:00N 25°49' W 080°05'0 0.0
2020-Mar-30 10:18N 25°49' W 080°05'0 0.0
2020-Mar-30 08:30N 25°49' W 080°05'0 0.0
2020-Mar-30 07:51N 25°49' W 080°05'0 0.0
2020-Mar-30 05:54N 25°49' W 080°05'0 0.0
2020-Mar-30 05:24N 25°49' W 080°05'0 0.0
2020-Mar-30 04:24N 25°49' W 080°05'0 0.0
2020-Mar-30 01:57N 25°49' W 080°05'0 0.0
2020-Mar-30 01:27N 25°49' W 080°05'0 0.0
2020-Mar-29 22:27N 25°49' W 080°05'0 0.0
2020-Mar-29 21:30N 25°49' W 080°05'0 0.0
2020-Mar-29 20:30N 25°49' W 080°05'0 0.0
2020-Mar-29 19:30N 25°49' W 080°05'0 0.0
2020-Mar-29 19:00N 25°49' W 080°05'0 0.0
2020-Mar-29 17:51N 25°49' W 080°05'0 0.0
2020-Mar-29 17:21N 25°49' W 080°05'0 0.0
2020-Mar-29 16:24N 25°49' W 080°05'0 0.0
2020-Mar-29 14:27N 25°49' W 080°05'0 0.0
2020-Mar-29 13:27N 25°49' W 080°05'0 0.0
2020-Mar-29 12:57N 25°49' W 080°05'0 0.0
2020-Mar-29 12:27N 25°49' W 080°05'0 0.0
2020-Mar-29 11:15N 25°49' W 080°05'0 0.0
2020-Mar-29 09:00N 25°49' W 080°05'0 0.0
2020-Mar-29 03:21N 25°49' W 080°05'0 0.0
2020-Mar-29 02:24N 25°49' W 080°05'2 0.9
2020-Mar-29 00:01N 25°49' W 080°02'815.0
2020-Mar-28 23:31N 25°45' W 079°55'3413.4
2020-Mar-28 20:59N 25°16' W 079°36'1912.3
2020-Mar-28 19:26N 24°58' W 079°32'  

Dump ship's entire track history